createdAt,value
2018-07-08T00:01:13.146Z,77.90
2018-07-08T00:11:06.455Z,77.20
2018-07-08T00:23:27.803Z,77.40
2018-07-08T00:25:56.347Z,77.70
2018-07-08T00:30:53.042Z,77.10
2018-07-08T00:35:49.761Z,77.70
2018-07-08T00:53:07.896Z,77.20
2018-07-08T00:55:36.394Z,77.60
2018-07-08T01:03:03.998Z,78.90
2018-07-08T01:05:32.625Z,79.20
2018-07-08T01:15:26.931Z,79.80
2018-07-08T01:17:55.597Z,79.90
2018-07-08T01:20:24.160Z,80.20
2018-07-08T01:32:51.433Z,81.20
2018-07-08T01:40:16.415Z,81.40
2018-07-08T01:45:13.072Z,81.80
2018-07-08T01:50:09.854Z,81.60
2018-07-08T01:57:34.916Z,80.30
2018-07-08T02:04:59.934Z,80.40
2018-07-08T02:14:53.177Z,81.00
2018-07-08T02:22:18.465Z,81.90
2018-07-08T02:32:11.975Z,82.50
2018-07-08T02:47:01.621Z,84.20
2018-07-08T02:59:23.408Z,83.60
2018-07-08T03:04:20.088Z,84.20
2018-07-08T03:09:16.821Z,83.60
2018-07-08T03:24:06.932Z,85.70
2018-07-08T03:29:03.686Z,85.30
2018-07-08T03:36:28.570Z,84.20
2018-07-08T03:43:53.637Z,84.40
2018-07-08T03:48:50.370Z,84.70
2018-07-08T03:53:47.044Z,84.80
2018-07-08T03:58:43.771Z,85.30
2018-07-08T04:03:40.478Z,84.20
2018-07-08T04:08:37.102Z,84.00
2018-07-08T04:18:30.129Z,84.50
2018-07-08T04:20:58.780Z,85.10
2018-07-08T04:28:23.830Z,84.80
2018-07-08T04:35:49.027Z,84.40
2018-07-08T04:43:14.001Z,83.50
2018-07-08T04:55:35.214Z,84.50
2018-07-08T05:00:32.005Z,83.50
2018-07-08T05:03:00.522Z,83.60
2018-07-08T05:07:57.271Z,83.30
2018-07-08T05:12:53.978Z,83.30
2018-07-08T05:17:50.754Z,82.70
2018-07-08T05:25:15.686Z,83.40
2018-07-08T05:27:44.226Z,83.10
2018-07-08T05:37:37.418Z,80.70
2018-07-08T05:45:02.405Z,79.00
2018-07-08T05:57:25.309Z,78.70
2018-07-08T06:02:22.177Z,78.50
2018-07-08T06:04:50.895Z,78.10
2018-07-08T06:12:15.776Z,77.00
2018-07-08T06:22:09.145Z,73.90
2018-07-08T06:32:02.539Z,72.00
2018-07-08T06:41:55.930Z,68.40
2018-07-08T06:56:45.735Z,64.40
2018-07-08T07:01:42.438Z,63.30
2018-07-08T07:04:10.930Z,61.80
2018-07-08T07:11:37.340Z,60.40
2018-07-08T07:16:34.418Z,59.80
2018-07-08T07:28:55.739Z,58.80
2018-07-08T07:33:52.498Z,59.00
2018-07-08T07:38:50.203Z,58.80
2018-07-08T07:41:18.851Z,58.30
2018-07-08T07:46:15.633Z,58.50
2018-07-08T07:51:13.302Z,57.10
2018-07-08T07:53:41.892Z,56.90
2018-07-08T07:58:38.627Z,56.60
2018-07-08T08:01:07.525Z,55.80
2018-07-08T08:18:25.510Z,54.40
2018-07-08T08:20:55.130Z,55.90
2018-07-08T08:25:51.957Z,53.60
2018-07-08T08:33:17.040Z,52.40
2018-07-08T08:38:13.856Z,51.40
2018-07-08T08:45:40.100Z,51.20
2018-07-08T08:53:05.249Z,50.10
2018-07-08T08:58:01.912Z,48.60
2018-07-08T09:02:58.629Z,47.90
2018-07-08T09:10:23.563Z,50.30
2018-07-08T10:43:51.858Z,46.50
2018-07-08T10:53:45.089Z,45.30
2018-07-08T10:58:41.904Z,44.40
2018-07-08T11:03:38.596Z,45.90
2018-07-08T11:16:01.422Z,42.50
2018-07-08T11:18:30.161Z,42.50
2018-07-08T11:28:23.376Z,43.20
2018-07-08T11:30:51.937Z,42.00
2018-07-08T11:38:17.048Z,39.40
2018-07-08T11:48:10.382Z,39.70
2018-07-08T11:50:38.947Z,41.50
2018-07-08T12:00:32.135Z,39.00
2018-07-08T12:03:00.699Z,41.40
2018-07-08T12:10:25.846Z,40.40
2018-07-08T12:17:50.855Z,39.10
2018-07-08T12:25:15.883Z,36.70
2018-07-08T12:32:40.890Z,36.40
2018-07-08T12:37:37.754Z,38.20
2018-07-08T12:52:27.511Z,38.20
2018-07-08T12:57:24.249Z,36.10
2018-07-08T13:02:21.136Z,36.60
2018-07-08T13:10:16.766Z,34.90
2018-07-08T13:17:41.718Z,35.20
2018-07-08T13:30:03.538Z,38.50
2018-07-08T13:35:00.264Z,38.00
2018-07-08T13:39:56.957Z,36.20
2018-07-08T13:49:50.139Z,37.30
2018-07-08T13:54:46.927Z,34.90
2018-07-08T13:57:15.462Z,34.80
2018-07-08T14:04:40.672Z,33.40
2018-07-08T14:18:37.139Z,32.50
2018-07-08T14:38:31.275Z,30.80
2018-07-08T14:41:00.103Z,30.10
2018-07-08T14:57:14.527Z,30.10
2018-07-08T15:25:22.066Z,28.90
2018-07-08T15:44:20.134Z,31.00
2018-07-08T15:46:48.673Z,31.30
2018-07-08T15:49:17.206Z,30.30
2018-07-08T15:54:14.015Z,30.80
2018-07-08T15:56:42.604Z,31.00
2018-07-08T15:59:11.131Z,30.00
2018-07-08T16:04:07.994Z,29.10
2018-07-08T16:06:36.520Z,29.40
2018-07-08T16:09:05.729Z,29.40
2018-07-08T16:14:02.561Z,29.90
2018-07-08T16:16:31.102Z,28.90
2018-07-08T16:18:59.782Z,28.80
2018-07-08T16:21:28.647Z,27.90
2018-07-08T16:26:25.401Z,28.20
2018-07-08T16:28:53.963Z,27.50
2018-07-08T16:31:22.804Z,27.00
2018-07-08T16:33:51.302Z,27.30
